createdAt,value
2022-08-20T00:00:38.993Z,98625.69
2022-08-20T00:03:07.102Z,98616.69
2022-08-20T00:05:35.765Z,98625.69
2022-08-20T00:08:04.073Z,98629.94
2022-08-20T00:10:32.106Z,98621.00
2022-08-20T00:12:58.659Z,98623.00
2022-08-20T00:15:28.491Z,98626.94
2022-08-20T00:17:56.189Z,98634.94
2022-08-20T00:20:24.834Z,98626.78
2022-08-20T00:22:51.448Z,98624.03
2022-08-20T00:25:18.371Z,98632.81
2022-08-20T00:27:44.873Z,98634.72
2022-08-20T00:30:12.659Z,98628.28
2022-08-20T00:32:49.517Z,98625.44
2022-08-20T00:35:18.306Z,98625.47
2022-08-20T00:37:44.725Z,98630.19
2022-08-20T00:40:22.298Z,98627.22
2022-08-20T00:42:54.191Z,98631.38
2022-08-20T00:45:20.927Z,98625.69
2022-08-20T00:47:51.270Z,98633.13
2022-08-20T00:50:20.331Z,98624.09
2022-08-20T00:52:50.259Z,98629.63
2022-08-20T00:55:19.642Z,98632.41
2022-08-20T00:58:00.662Z,98641.19
2022-08-20T01:00:28.276Z,98635.81
2022-08-20T01:02:55.633Z,98633.13
2022-08-20T01:05:23.568Z,98642.78
2022-08-20T01:07:56.443Z,98641.13
2022-08-20T01:10:28.388Z,98650.13
2022-08-20T01:12:59.229Z,98644.75
2022-08-20T01:15:30.974Z,98637.56
2022-08-20T01:17:59.168Z,98647.22
2022-08-20T01:20:25.565Z,98648.03
2022-08-20T01:23:17.986Z,98638.19
2022-08-20T01:25:53.511Z,98633.56
2022-08-20T01:28:23.063Z,98629.22
2022-08-20T01:30:52.183Z,98625.50
2022-08-20T01:33:18.935Z,98632.97
2022-08-20T01:35:45.490Z,98631.00
2022-08-20T01:38:12.692Z,98628.78
2022-08-20T01:40:39.860Z,98630.59
2022-08-20T01:43:09.078Z,98627.63
2022-08-20T01:45:38.258Z,98628.72
2022-08-20T01:48:06.510Z,98629.00
2022-08-20T01:50:34.819Z,98635.84
2022-08-20T01:53:06.751Z,98641.81
2022-08-20T01:55:33.321Z,98637.16
2022-08-20T01:58:00.304Z,98637.38
2022-08-20T02:00:29.762Z,98639.19
2022-08-20T02:02:56.243Z,98631.94
2022-08-20T02:05:23.164Z,98631.94
2022-08-20T02:07:49.977Z,98627.75
2022-08-20T02:10:17.365Z,98629.00
2022-08-20T02:12:44.221Z,98630.84
2022-08-20T02:15:11.334Z,98641.50
2022-08-20T02:17:39.067Z,98632.66
2022-08-20T02:20:14.054Z,98627.97
2022-08-20T02:22:40.413Z,98626.63
2022-08-20T02:25:12.467Z,98636.47
2022-08-20T02:27:40.559Z,98635.19
2022-08-20T02:30:19.272Z,98641.44
2022-08-20T02:32:56.259Z,98646.75
2022-08-20T02:35:27.219Z,98638.56
2022-08-20T02:37:54.074Z,98656.13
2022-08-20T02:40:27.367Z,98649.00
2022-08-20T02:42:58.034Z,98652.28
2022-08-20T02:45:24.454Z,98659.25
2022-08-20T02:47:52.649Z,98657.88
2022-08-20T02:50:22.090Z,98653.72
2022-08-20T02:52:52.110Z,98653.34
2022-08-20T02:55:27.095Z,98663.75
2022-08-20T02:57:55.887Z,98657.09
2022-08-20T03:00:26.048Z,98650.25
2022-08-20T03:02:52.502Z,98650.19
2022-08-20T03:05:18.948Z,98645.28
2022-08-20T03:07:52.388Z,98651.56
2022-08-20T03:10:22.359Z,98646.28
2022-08-20T03:12:49.714Z,98655.44
2022-08-20T03:15:17.275Z,98651.66
2022-08-20T03:17:45.270Z,98654.03
2022-08-20T03:20:12.496Z,98649.88
2022-08-20T03:22:39.160Z,98652.00
2022-08-20T03:25:06.007Z,98656.13
2022-08-20T03:27:36.117Z,98643.97
2022-08-20T03:30:04.125Z,98642.59
2022-08-20T03:32:33.120Z,98642.84
2022-08-20T03:34:59.960Z,98641.66
2022-08-20T03:37:29.391Z,98635.84
2022-08-20T03:39:55.864Z,98638.28
2022-08-20T03:42:22.246Z,98642.28
2022-08-20T03:44:49.228Z,98649.44
2022-08-20T03:47:25.555Z,98649.16
2022-08-20T03:49:51.990Z,98647.16
2022-08-20T03:52:18.378Z,98653.59
2022-08-20T03:54:46.016Z,98652.78
2022-08-20T03:57:13.441Z,98650.63
2022-08-20T03:59:42.563Z,98652.50
2022-08-20T04:02:10.856Z,98659.03
2022-08-20T04:04:38.327Z,98648.44
2022-08-20T04:07:16.039Z,98651.72
2022-08-20T04:09:43.742Z,98651.56
2022-08-20T04:12:12.862Z,98646.84
2022-08-20T04:14:40.273Z,98647.38
2022-08-20T04:17:08.512Z,98654.47
2022-08-20T04:19:35.856Z,98659.84
2022-08-20T04:22:02.340Z,98663.97
2022-08-20T04:24:32.139Z,98662.16
2022-08-20T04:26:59.452Z,98659.75
2022-08-20T04:29:26.181Z,98663.31
2022-08-20T04:32:00.525Z,98663.94
2022-08-20T04:34:27.547Z,98662.09
2022-08-20T04:36:54.090Z,98663.47
2022-08-20T04:39:20.506Z,98670.16
2022-08-20T04:41:47.054Z,98674.53
2022-08-20T04:44:13.647Z,98671.34
2022-08-20T04:46:40.277Z,98675.59
2022-08-20T04:49:07.209Z,98668.38
2022-08-20T04:51:34.116Z,98672.22
2022-08-20T04:54:00.933Z,98673.59
2022-08-20T04:56:28.520Z,98680.44
2022-08-20T04:58:56.839Z,98672.81
2022-08-20T05:01:24.044Z,98676.53
2022-08-20T05:03:51.233Z,98683.72
2022-08-20T05:06:18.129Z,98680.22
2022-08-20T05:08:44.976Z,98686.59
2022-08-20T05:11:33.854Z,98678.19
2022-08-20T05:14:01.052Z,98682.22
2022-08-20T05:16:27.571Z,98683.63
2022-08-20T05:18:54.067Z,98684.69
2022-08-20T05:21:21.163Z,98683.34
2022-08-20T05:23:50.711Z,98691.19
2022-08-20T05:26:20.020Z,98695.75
2022-08-20T05:28:57.842Z,98698.50
2022-08-20T05:31:32.757Z,98695.91
2022-08-20T05:34:11.599Z,98691.22
2022-08-20T05:36:56.376Z,98699.00
2022-08-20T05:39:26.203Z,98707.13
2022-08-20T05:41:52.851Z,98716.03
2022-08-20T05:44:19.511Z,98716.91
2022-08-20T05:46:47.762Z,98721.41
2022-08-20T05:49:16.339Z,98723.91
2022-08-20T05:51:43.536Z,98724.03
2022-08-20T05:54:09.983Z,98724.03
2022-08-20T05:56:37.249Z,98731.94
2022-08-20T05:59:07.552Z,98729.16
2022-08-20T06:01:35.636Z,98734.63
2022-08-20T06:04:21.627Z,98730.84
2022-08-20T06:06:48.473Z,98743.94
2022-08-20T06:09:16.317Z,98743.47
2022-08-20T06:11:43.896Z,98744.88
2022-08-20T06:14:10.437Z,98743.59
2022-08-20T06:16:56.314Z,98739.72
2022-08-20T06:19:25.132Z,98739.59
2022-08-20T06:21:52.887Z,98750.06
2022-08-20T06:24:21.271Z,98745.25
2022-08-20T06:26:52.140Z,98748.72
2022-08-20T06:29:19.340Z,98753.22
2022-08-20T06:31:46.237Z,98750.47
2022-08-20T06:34:12.657Z,98749.50
2022-08-20T06:36:39.190Z,98756.50
2022-08-20T06:39:05.782Z,98744.84
2022-08-20T06:41:36.125Z,98754.69
2022-08-20T06:44:04.806Z,98756.31
2022-08-20T06:46:32.226Z,98759.88
2022-08-20T06:48:58.780Z,98760.00
2022-08-20T06:51:25.225Z,98768.00
2022-08-20T06:53:51.617Z,98753.50
2022-08-20T06:56:18.039Z,98752.50
2022-08-20T06:58:46.385Z,98752.16
2022-08-20T07:01:13.803Z,98742.16
2022-08-20T07:03:42.158Z,98743.69
2022-08-20T07:06:21.962Z,98742.56
2022-08-20T07:08:48.393Z,98745.03
2022-08-20T07:11:14.825Z,98745.75
2022-08-20T07:13:41.995Z,98740.28
2022-08-20T07:16:08.689Z,98743.47
2022-08-20T07:18:35.147Z,98741.72
2022-08-20T07:21:01.542Z,98748.84
2022-08-20T07:23:28.317Z,98762.22
2022-08-20T07:25:55.780Z,98755.84
2022-08-20T07:28:28.759Z,98757.53
2022-08-20T07:31:15.769Z,98761.09
2022-08-20T07:33:44.476Z,98756.31
2022-08-20T07:36:12.117Z,98757.84
2022-08-20T07:38:38.657Z,98766.06
2022-08-20T07:41:13.156Z,98755.88
2022-08-20T07:43:40.346Z,98758.22
2022-08-20T07:46:09.344Z,98756.38
2022-08-20T07:48:43.020Z,98758.13
2022-08-20T07:51:10.840Z,98760.00
2022-08-20T07:53:39.025Z,98763.50
2022-08-20T07:56:06.710Z,98758.91
2022-08-20T07:58:35.300Z,98762.22
2022-08-20T08:01:01.806Z,98760.47
2022-08-20T08:03:40.942Z,98766.72
2022-08-20T08:06:16.999Z,98764.09
2022-08-20T08:08:55.457Z,98768.69
2022-08-20T08:11:21.892Z,98772.38
2022-08-20T08:13:48.298Z,98765.25
2022-08-20T08:16:15.253Z,98765.84
2022-08-20T08:18:45.241Z,98775.38
2022-08-20T08:21:15.771Z,98781.50
2022-08-20T08:23:44.630Z,98784.19
2022-08-20T08:26:16.053Z,98787.69
2022-08-20T08:28:45.734Z,98791.19
2022-08-20T08:31:12.721Z,98786.66
2022-08-20T08:33:40.781Z,98790.16
2022-08-20T08:36:10.535Z,98800.06
2022-08-20T08:38:38.050Z,98794.03
2022-08-20T08:41:24.762Z,98794.16
2022-08-20T08:43:59.214Z,98790.16
2022-08-20T08:46:27.138Z,98790.75
2022-08-20T08:48:56.484Z,98799.63
2022-08-20T08:51:56.076Z,98805.16
2022-08-20T08:54:24.891Z,98807.34
2022-08-20T08:56:51.544Z,98803.13
2022-08-20T08:59:18.961Z,98805.28
2022-08-20T09:01:55.287Z,98807.53
2022-08-20T09:04:23.818Z,98813.94
2022-08-20T09:06:53.532Z,98807.88
2022-08-20T09:09:22.778Z,98813.84
2022-08-20T09:11:51.009Z,98817.41
2022-08-20T09:14:17.531Z,98810.25
2022-08-20T09:16:52.293Z,98809.59
2022-08-20T09:19:20.168Z,98808.63
2022-08-20T09:21:46.657Z,98815.56
2022-08-20T09:24:13.231Z,98809.94
2022-08-20T09:26:39.648Z,98822.16
2022-08-20T09:29:06.153Z,98809.38
2022-08-20T09:31:32.812Z,98814.47
2022-08-20T09:33:59.762Z,98820.53
2022-08-20T09:36:30.730Z,98813.16
2022-08-20T09:38:59.488Z,98810.63
2022-08-20T09:41:25.886Z,98813.44
2022-08-20T09:43:55.154Z,98813.31
2022-08-20T09:46:27.165Z,98812.44
2022-08-20T09:48:54.080Z,98808.72
2022-08-20T09:51:20.578Z,98811.63
2022-08-20T09:53:47.234Z,98816.88
2022-08-20T09:56:13.714Z,98823.13
2022-08-20T09:58:47.247Z,98824.97
2022-08-20T10:01:15.438Z,98819.56
2022-08-20T10:03:42.940Z,98823.06
2022-08-20T10:06:11.042Z,98819.50
2022-08-20T10:08:37.906Z,98822.19
2022-08-20T10:11:04.595Z,98817.84
2022-08-20T10:13:30.998Z,98834.97
2022-08-20T10:15:57.532Z,98819.84
2022-08-20T10:18:26.583Z,98823.34
2022-08-20T10:20:53.262Z,98824.28
2022-08-20T10:23:19.763Z,98826.09
2022-08-20T10:25:46.321Z,98819.03
2022-08-20T10:28:12.819Z,98826.97
2022-08-20T10:30:39.268Z,98828.59
2022-08-20T10:33:06.467Z,98830.91
2022-08-20T10:35:33.043Z,98828.03
2022-08-20T10:37:59.565Z,98824.09
2022-08-20T10:40:26.026Z,98823.06
2022-08-20T10:42:52.436Z,98818.09
2022-08-20T10:45:19.055Z,98812.78
2022-08-20T10:47:45.516Z,98814.44
2022-08-20T10:50:14.105Z,98816.03
2022-08-20T10:52:40.555Z,98819.81
2022-08-20T10:55:07.532Z,98821.50
2022-08-20T10:57:33.926Z,98819.38
2022-08-20T11:00:01.296Z,98819.38
2022-08-20T11:02:29.395Z,98822.25
2022-08-20T11:04:56.071Z,98820.50
2022-08-20T11:07:53.505Z,98823.19
2022-08-20T11:10:14.127Z,98818.72
2022-08-20T11:12:41.028Z,98825.28
2022-08-20T11:15:10.725Z,98821.91
2022-08-20T11:17:39.443Z,98819.56
2022-08-20T11:20:07.849Z,98823.84
2022-08-20T11:22:38.060Z,98818.84
2022-08-20T11:25:05.449Z,98830.25
2022-08-20T11:27:34.392Z,98831.19
2022-08-20T11:30:00.795Z,98827.63
2022-08-20T11:32:27.300Z,98833.47
2022-08-20T11:34:53.772Z,98820.63
2022-08-20T11:37:21.897Z,98821.69
2022-08-20T11:39:48.389Z,98825.22
2022-08-20T11:42:15.222Z,98814.13
2022-08-20T11:44:41.757Z,98818.00
2022-08-20T11:47:08.329Z,98817.19
2022-08-20T11:49:36.398Z,98815.78
2022-08-20T11:52:04.328Z,98813.28
2022-08-20T11:54:32.547Z,98815.69
2022-08-20T11:56:59.570Z,98815.53
2022-08-20T11:59:26.556Z,98815.00
2022-08-20T12:02:03.272Z,98819.63
2022-08-20T12:04:33.627Z,98809.84
2022-08-20T12:07:07.513Z,98811.44
2022-08-20T12:09:37.081Z,98799.41
2022-08-20T12:12:08.431Z,98803.53
2022-08-20T12:14:35.271Z,98805.84
2022-08-20T12:17:12.339Z,98802.94
2022-08-20T12:19:39.654Z,98813.78
2022-08-20T12:22:25.049Z,98814.06
2022-08-20T12:24:52.348Z,98813.44
2022-08-20T12:27:24.001Z,98809.66
2022-08-20T12:29:53.335Z,98811.22
2022-08-20T12:32:20.636Z,98808.88
2022-08-20T12:34:47.179Z,98804.00
2022-08-20T12:37:16.197Z,98808.63
2022-08-20T12:39:43.741Z,98803.38
2022-08-20T12:42:10.954Z,98804.50
2022-08-20T12:44:37.805Z,98802.06
2022-08-20T12:47:16.402Z,98803.78
2022-08-20T12:49:45.584Z,98798.47
2022-08-20T12:52:12.396Z,98801.72
2022-08-20T12:54:39.009Z,98799.69
2022-08-20T12:57:07.988Z,98802.03
2022-08-20T12:59:34.642Z,98803.31
2022-08-20T13:02:14.286Z,98806.03
2022-08-20T13:04:45.193Z,98816.56
2022-08-20T13:07:12.954Z,98810.53
2022-08-20T13:09:41.046Z,98821.59
2022-08-20T13:12:07.931Z,98834.56
2022-08-20T13:14:34.682Z,98831.47
2022-08-20T13:17:01.544Z,98826.53
2022-08-20T13:19:28.839Z,98831.50
2022-08-20T13:21:55.370Z,98832.81
2022-08-20T13:24:22.459Z,98833.28
2022-08-20T13:26:49.701Z,98840.63
2022-08-20T13:29:16.786Z,98828.59
2022-08-20T13:31:43.527Z,98839.72
2022-08-20T13:34:10.343Z,98832.13
2022-08-20T13:36:37.069Z,98841.72
2022-08-20T13:39:07.666Z,98837.78
2022-08-20T13:41:34.612Z,98839.16
2022-08-20T13:44:01.061Z,98846.63
2022-08-20T13:46:27.476Z,98835.72
2022-08-20T13:48:53.906Z,98839.22
2022-08-20T13:51:23.626Z,98836.44
2022-08-20T13:53:54.351Z,98834.56
2022-08-20T13:56:23.981Z,98829.97
2022-08-20T13:58:50.400Z,98834.38
2022-08-20T14:01:19.660Z,98829.22
2022-08-20T14:03:47.799Z,98832.34
2022-08-20T14:06:14.191Z,98831.50
2022-08-20T14:08:40.625Z,98831.41
2022-08-20T14:11:07.067Z,98823.69
2022-08-20T14:13:39.192Z,98821.78
2022-08-20T14:16:21.457Z,98833.31
2022-08-20T14:18:53.750Z,98834.84
2022-08-20T14:21:20.210Z,98840.00
2022-08-20T14:23:46.580Z,98845.75
2022-08-20T14:26:12.971Z,98841.03
2022-08-20T14:28:39.555Z,98840.44
2022-08-20T14:31:08.703Z,98840.94
2022-08-20T14:33:36.175Z,98841.59
2022-08-20T14:36:02.968Z,98839.19
2022-08-20T14:38:29.375Z,98851.75
2022-08-20T14:40:55.949Z,98846.03
2022-08-20T14:43:22.356Z,98851.59
2022-08-20T14:45:48.818Z,98852.69
2022-08-20T14:48:15.391Z,98860.00
2022-08-20T14:50:41.834Z,98867.41
2022-08-20T14:53:08.749Z,98858.97
2022-08-20T14:55:37.344Z,98860.72
2022-08-20T14:58:11.172Z,98855.19
2022-08-20T15:00:37.842Z,98857.97
2022-08-20T15:03:04.303Z,98852.72
2022-08-20T15:05:31.491Z,98850.09
2022-08-20T15:07:59.423Z,98856.38
2022-08-20T15:10:28.007Z,98857.56
2022-08-20T15:12:54.563Z,98864.13
2022-08-20T15:15:21.664Z,98862.53
2022-08-20T15:17:49.813Z,98857.13
2022-08-20T15:20:21.141Z,98854.81
2022-08-20T15:22:48.802Z,98858.31
2022-08-20T15:25:16.499Z,98856.28
2022-08-20T15:27:43.050Z,98857.56
2022-08-20T15:30:11.468Z,98855.66
2022-08-20T15:32:37.995Z,98861.06
2022-08-20T15:35:09.875Z,98855.50
2022-08-20T15:37:41.383Z,98861.75
2022-08-20T15:40:09.412Z,98866.44
2022-08-20T15:42:36.370Z,98859.31
2022-08-20T15:45:09.731Z,98870.81
2022-08-20T15:47:48.586Z,98862.41
2022-08-20T15:50:21.316Z,98864.09
2022-08-20T15:52:47.725Z,98874.88
2022-08-20T15:55:15.747Z,98875.75
2022-08-20T15:58:01.241Z,98870.63
2022-08-20T16:00:39.938Z,98872.13
2022-08-20T16:03:45.821Z,98862.81
2022-08-20T16:06:20.075Z,98864.50
2022-08-20T16:09:04.983Z,98861.41
2022-08-20T16:11:34.393Z,98854.25
2022-08-20T16:14:15.916Z,98859.72
2022-08-20T16:16:47.731Z,98853.59
2022-08-20T16:19:34.921Z,98854.69
2022-08-20T16:22:03.144Z,98855.72
2022-08-20T16:24:29.582Z,98850.47
2022-08-20T16:27:01.558Z,98854.00
2022-08-20T16:29:30.767Z,98847.72
2022-08-20T16:32:10.207Z,98855.72
2022-08-20T16:34:40.702Z,98859.22
2022-08-20T16:37:25.240Z,98865.31
2022-08-20T16:39:51.828Z,98859.72
2022-08-20T16:42:20.877Z,98860.38
2022-08-20T16:44:48.164Z,98858.47
2022-08-20T16:47:17.137Z,98855.56
2022-08-20T16:49:56.974Z,98860.13
2022-08-20T16:52:23.427Z,98854.97
2022-08-20T16:54:52.460Z,98855.06
2022-08-20T16:57:22.603Z,98857.81
2022-08-20T16:59:57.459Z,98860.72
2022-08-20T17:02:24.834Z,98860.88
2022-08-20T17:04:59.556Z,98863.81
2022-08-20T17:07:41.653Z,98863.16
2022-08-20T17:10:21.796Z,98870.28
2022-08-20T17:12:52.223Z,98867.59
2022-08-20T17:15:23.777Z,98868.69
2022-08-20T17:17:53.200Z,98864.34
2022-08-20T17:20:20.228Z,98874.44
2022-08-20T17:23:10.969Z,98869.03
2022-08-20T17:25:38.429Z,98867.38
2022-08-20T17:28:18.158Z,98866.78
2022-08-20T17:30:45.794Z,98872.22
2022-08-20T17:33:21.165Z,98874.00
2022-08-20T17:35:58.994Z,98866.09
2022-08-20T17:38:31.297Z,98868.22
2022-08-20T17:40:58.834Z,98864.88
2022-08-20T17:43:26.853Z,98858.84
2022-08-20T17:45:54.420Z,98863.41
2022-08-20T17:48:25.982Z,98867.34
2022-08-20T17:50:55.146Z,98881.13
2022-08-20T17:53:26.526Z,98881.63
2022-08-20T17:55:54.913Z,98875.03
2022-08-20T17:58:32.458Z,98869.19
2022-08-20T18:00:59.645Z,98876.00
2022-08-20T18:03:27.213Z,98866.63
2022-08-20T18:06:03.707Z,98873.41
2022-08-20T18:08:30.886Z,98875.56
2022-08-20T18:11:03.619Z,98874.69
2022-08-20T18:13:53.044Z,98878.66
2022-08-20T18:16:43.785Z,98877.44
2022-08-20T18:19:17.560Z,98885.31
2022-08-20T18:21:59.302Z,98888.84
2022-08-20T18:24:38.850Z,98892.13
2022-08-20T18:27:08.838Z,98901.00
2022-08-20T18:29:40.654Z,98905.13
2022-08-20T18:32:10.360Z,98913.78
2022-08-20T18:34:39.283Z,98912.69
2022-08-20T18:37:06.454Z,98921.41
2022-08-20T18:39:34.481Z,98915.03
2022-08-20T18:42:02.803Z,98914.88
2022-08-20T18:44:40.269Z,98916.19
2022-08-20T18:47:18.748Z,98919.63
2022-08-20T18:49:45.172Z,98924.47
2022-08-20T18:52:16.308Z,98920.72
2022-08-20T18:54:48.979Z,98922.88
2022-08-20T18:57:26.929Z,98923.16
2022-08-20T19:00:14.435Z,98914.66
2022-08-20T19:02:59.159Z,98915.38
2022-08-20T19:05:52.200Z,98917.94
2022-08-20T19:08:21.146Z,98922.34
2022-08-20T19:11:10.691Z,98922.34
2022-08-20T19:13:55.673Z,98917.88
2022-08-20T19:16:28.737Z,98923.38
2022-08-20T19:18:55.945Z,98916.47
2022-08-20T19:21:25.052Z,98917.44
2022-08-20T19:23:54.147Z,98922.00
2022-08-20T19:26:25.035Z,98918.53
2022-08-20T19:29:12.856Z,98919.75
2022-08-20T19:31:46.208Z,98919.72
2022-08-20T19:34:20.005Z,98918.88
2022-08-20T19:37:27.741Z,98915.31
2022-08-20T19:39:50.931Z,98909.78
2022-08-20T19:42:22.904Z,98915.03
2022-08-20T19:44:57.443Z,98914.09
2022-08-20T19:47:32.849Z,98920.41
2022-08-20T19:50:05.456Z,98924.09
2022-08-20T19:52:34.931Z,98912.56
2022-08-20T19:55:03.883Z,98919.91
2022-08-20T19:57:30.701Z,98911.66
2022-08-20T20:00:01.945Z,98909.78
2022-08-20T20:02:29.887Z,98909.72
2022-08-20T20:04:58.069Z,98902.38
2022-08-20T20:07:36.655Z,98899.53
2022-08-20T20:10:08.057Z,98905.78
2022-08-20T20:12:34.564Z,98909.50
2022-08-20T20:15:01.215Z,98917.44
2022-08-20T20:17:38.557Z,98914.16
2022-08-20T20:20:32.874Z,98923.28
2022-08-20T20:23:06.395Z,98920.75
2022-08-20T20:25:34.014Z,98920.63
2022-08-20T20:28:20.717Z,98926.00
2022-08-20T20:30:47.614Z,98934.78
2022-08-20T20:33:19.436Z,98937.59
2022-08-20T20:35:46.301Z,98933.91
2022-08-20T20:38:26.748Z,98937.41
2022-08-20T20:40:54.578Z,98932.91
2022-08-20T20:43:27.521Z,98935.59
2022-08-20T20:45:59.825Z,98937.34
2022-08-20T20:48:27.866Z,98934.50
2022-08-20T20:50:59.479Z,98935.66
2022-08-20T20:53:29.334Z,98934.03
2022-08-20T20:56:28.483Z,98940.53
2022-08-20T20:58:55.888Z,98942.53
2022-08-20T21:01:38.632Z,98940.81
2022-08-20T21:04:09.382Z,98944.72
2022-08-20T21:06:35.925Z,98948.38
2022-08-20T21:09:02.809Z,98948.47
2022-08-20T21:11:29.204Z,98949.59
2022-08-20T21:13:55.635Z,98954.22
2022-08-20T21:16:22.147Z,98947.03
2022-08-20T21:18:48.703Z,98948.94
2022-08-20T21:21:15.922Z,98951.81
2022-08-20T21:23:42.444Z,98952.81
2022-08-20T21:26:08.894Z,98959.28
2022-08-20T21:28:35.502Z,98961.16
2022-08-20T21:31:01.949Z,98959.28
2022-08-20T21:33:28.434Z,98965.66
2022-08-20T21:35:58.331Z,98968.59
2022-08-20T21:38:28.329Z,98970.47
2022-08-20T21:40:54.817Z,98967.16
2022-08-20T21:43:27.480Z,98973.47
2022-08-20T21:46:01.294Z,98966.56
2022-08-20T21:48:28.990Z,98972.75
2022-08-20T21:50:55.411Z,98962.88
2022-08-20T21:53:24.597Z,98976.50
2022-08-20T21:55:51.146Z,98970.41
2022-08-20T21:58:19.566Z,98977.88
2022-08-20T22:00:51.633Z,98972.56
2022-08-20T22:03:20.125Z,98968.88
2022-08-20T22:05:47.024Z,98971.63
2022-08-20T22:08:13.533Z,98971.56
2022-08-20T22:10:39.993Z,98977.69
2022-08-20T22:13:07.046Z,98974.06
2022-08-20T22:15:36.993Z,98969.63
2022-08-20T22:18:03.558Z,98971.50
2022-08-20T22:20:30.033Z,98968.75
2022-08-20T22:22:57.499Z,98967.88
2022-08-20T22:25:24.112Z,98970.50
2022-08-20T22:27:50.525Z,98978.56
2022-08-20T22:30:17.001Z,98974.06
2022-08-20T22:32:51.406Z,98977.50
2022-08-20T22:35:19.160Z,98959.78
2022-08-20T22:37:45.817Z,98963.50
2022-08-20T22:40:12.365Z,98955.47
2022-08-20T22:42:38.834Z,98960.09
2022-08-20T22:45:05.441Z,98949.47
2022-08-20T22:47:41.707Z,98956.53
2022-08-20T22:50:08.718Z,98948.72
2022-08-20T22:52:37.179Z,98957.66
2022-08-20T22:55:06.043Z,98964.69
2022-08-20T22:57:34.272Z,98959.75
2022-08-20T23:00:01.241Z,98954.84
2022-08-20T23:02:27.971Z,98960.16
2022-08-20T23:04:54.482Z,98957.53
2022-08-20T23:07:22.235Z,98955.09
2022-08-20T23:09:48.714Z,98958.72
2022-08-20T23:12:15.176Z,98955.22
2022-08-20T23:14:41.766Z,98949.31
2022-08-20T23:17:14.052Z,98945.19
2022-08-20T23:19:44.436Z,98951.88
2022-08-20T23:22:13.126Z,98949.50
2022-08-20T23:24:39.925Z,98949.22
2022-08-20T23:27:07.337Z,98944.38
2022-08-20T23:29:33.786Z,98942.25
2022-08-20T23:32:00.526Z,98941.84
2022-08-20T23:34:29.200Z,98938.75
2022-08-20T23:36:56.597Z,98934.81
2022-08-20T23:39:23.552Z,98935.00
2022-08-20T23:41:50.334Z,98940.81
2022-08-20T23:44:26.494Z,98936.31
2022-08-20T23:46:54.675Z,98946.06
2022-08-20T23:49:24.119Z,98947.44
2022-08-20T23:51:50.533Z,98948.63
2022-08-20T23:54:19.638Z,98946.34
2022-08-20T23:56:46.049Z,98937.91
2022-08-20T23:59:12.482Z,98943.91
